Time;durP1;ratioP1;P1;durP2;ratioP2;P2;SDS_P1;SDS_P2;PMS_P1;PMS_P2;Temp;Humidity;BMP_temperature;BMP_pressure;BME280_temperature;BME280_humidity;BME280_pressure;Samples;Min_cycle;Max_cycle;Signal;HPM_P1;HPM_P2
2023/03/29 00:00:39;;;;;;;6.80;1.73;;;6.60;99.90;;;;;;5050755;28;20188;-74
2023/03/29 00:03:04;;;;;;;2.47;2.37;;;6.50;99.90;;;;;;5058725;28;20662;-73
2023/03/29 00:05:33;;;;;;;2.20;1.70;;;6.50;99.90;;;;;;5050226;28;20215;-74
2023/03/29 00:08:03;;;;;;;2.20;1.70;;;6.50;99.90;;;;;;5050441;28;20294;-74
2023/03/29 00:10:31;;;;;;;1.60;1.50;;;6.50;99.90;;;;;;5050166;28;20433;-72
2023/03/29 00:12:57;;;;;;;1.90;1.80;;;6.40;99.90;;;;;;5062740;28;20803;-73
2023/03/29 00:15:22;;;;;;;8.43;1.90;;;6.40;99.90;;;;;;5062082;28;20426;-73
2023/03/29 00:17:48;;;;;;;4.63;2.00;;;6.40;99.90;;;;;;5054245;28;20425;-75
2023/03/29 00:20:14;;;;;;;2.10;1.90;;;6.40;99.90;;;;;;5053976;28;20196;-72
2023/03/29 00:22:40;;;;;;;2.47;2.27;;;6.40;99.90;;;;;;5054108;28;20450;-74
2023/03/29 00:25:07;;;;;;;2.80;2.13;;;6.40;99.90;;;;;;5062073;28;20194;-74
2023/03/29 00:27:32;;;;;;;3.23;2.13;;;6.40;99.90;;;;;;5036107;28;20487;-73
2023/03/29 00:29:58;;;;;;;4.30;2.60;;;6.40;99.90;;;;;;5053928;28;20430;-73
2023/03/29 00:32:24;;;;;;;2.30;2.10;;;6.40;99.90;;;;;;5043870;28;20210;-72
2023/03/29 00:34:49;;;;;;;2.40;2.20;;;6.40;99.90;;;;;;5053741;28;20644;-74
2023/03/29 00:37:17;;;;;;;2.33;2.13;;;6.40;99.90;;;;;;5053399;28;20425;-73
2023/03/29 00:39:44;;;;;;;4.10;3.20;;;6.40;99.90;;;;;;5053828;28;20180;-73
2023/03/29 00:42:12;;;;;;;2.47;2.30;;;6.30;99.90;;;;;;5061691;28;20502;-74
2023/03/29 00:44:59;;;;;;;2.97;2.50;;;6.30;99.90;;;;;;5053340;28;20432;-73
2023/03/29 00:47:48;;;;;;;2.10;2.00;;;6.30;99.90;;;;;;5053610;28;20828;-73
2023/03/29 00:50:38;;;;;;;3.90;2.60;;;6.30;99.90;;;;;;5053490;28;20435;-72
2023/03/29 00:53:11;;;;;;;2.40;2.20;;;6.30;99.90;;;;;;5053393;28;20431;-73
2023/03/29 00:55:47;;;;;;;5.40;3.57;;;6.30;99.90;;;;;;5053257;28;20523;-74
2023/03/29 00:58:16;;;;;;;2.97;2.70;;;6.30;99.90;;;;;;5061722;28;20441;-73
2023/03/29 02:31:41;;;;;;;2.97;2.67;;;6.20;99.90;;;;;;5662848;22;20601;-73
2023/03/29 02:34:38;;;;;;;2.40;2.20;;;6.20;99.90;;;;;;4990118;28;20428;-74
2023/03/29 02:37:14;;;;;;;2.40;2.30;;;6.20;99.90;;;;;;4979095;28;20830;-75
2023/03/29 02:39:40;;;;;;;2.80;2.27;;;6.30;99.90;;;;;;4984561;28;20432;-74
2023/03/29 02:42:07;;;;;;;4.80;2.70;;;6.30;99.90;;;;;;4985055;28;20483;-77
2023/03/29 02:44:38;;;;;;;2.70;2.50;;;6.30;99.90;;;;;;4986811;28;20793;-74
2023/03/29 02:47:19;;;;;;;5.67;3.40;;;6.30;99.90;;;;;;4963379;28;20467;-74
2023/03/29 02:49:45;;;;;;;4.63;2.37;;;6.30;99.90;;;;;;4980850;28;20556;-76
2023/03/29 02:52:15;;;;;;;4.93;2.87;;;6.20;99.90;;;;;;4980450;28;20526;-73
2023/03/29 02:54:44;;;;;;;2.77;2.50;;;6.30;99.90;;;;;;4979993;28;20347;-72
2023/03/29 02:57:10;;;;;;;2.70;1.87;;;6.30;99.90;;;;;;4980733;28;20436;-73
2023/03/29 02:59:37;;;;;;;3.10;1.97;;;6.20;99.90;;;;;;4980445;28;20425;-74
2023/03/29 03:02:04;;;;;;;2.40;2.30;;;6.20;99.90;;;;;;4979945;28;20542;-74
2023/03/29 03:04:30;;;;;;;2.73;2.40;;;6.20;99.90;;;;;;4982930;28;20433;-74
2023/03/29 03:06:56;;;;;;;3.53;2.63;;;6.10;99.90;;;;;;4983520;28;20465;-73
2023/03/29 03:09:22;;;;;;;2.93;2.20;;;6.10;99.90;;;;;;4982141;28;20434;-71
2023/03/29 03:11:48;;;;;;;3.43;2.53;;;6.00;99.90;;;;;;4963035;28;20271;-74
2023/03/29 03:14:15;;;;;;;2.70;2.43;;;6.00;99.90;;;;;;4980940;28;20436;-73
2023/03/29 03:16:41;;;;;;;3.53;2.33;;;6.00;99.90;;;;;;4980578;28;20180;-75
2023/03/29 03:19:09;;;;;;;2.60;2.00;;;5.90;99.90;;;;;;4980399;28;20440;-75
2023/03/29 03:21:36;;;;;;;2.63;2.10;;;5.90;99.90;;;;;;4983170;28;20456;-74
2023/03/29 03:24:02;;;;;;;2.90;2.57;;;5.90;99.90;;;;;;4984002;28;20439;-74
2023/03/29 03:26:28;;;;;;;1.97;1.87;;;5.90;99.90;;;;;;4991758;28;20550;-74
2023/03/29 03:28:55;;;;;;;1.90;1.80;;;5.90;99.90;;;;;;4978285;28;20873;-74
2023/03/29 03:31:20;;;;;;;2.03;1.93;;;5.90;99.90;;;;;;4981384;28;20454;-74
2023/03/29 03:33:46;;;;;;;3.17;1.60;;;6.00;99.90;;;;;;4984058;28;20460;-73
2023/03/29 03:36:12;;;;;;;4.87;1.70;;;6.00;99.90;;;;;;4976250;28;20615;-74
2023/03/29 03:38:38;;;;;;;2.20;2.10;;;6.00;99.90;;;;;;4984001;28;20190;-74
2023/03/29 03:41:06;;;;;;;3.27;2.63;;;6.10;99.90;;;;;;4983850;28;20505;-74
2023/03/29 03:43:32;;;;;;;2.00;1.80;;;6.10;99.90;;;;;;4988927;28;20376;-72
2023/03/29 03:45:58;;;;;;;1.60;1.50;;;6.20;99.90;;;;;;4979220;28;20436;-74
2023/03/29 03:48:24;;;;;;;6.87;2.07;;;6.30;99.90;;;;;;4987862;28;20434;-74
2023/03/29 03:50:52;;;;;;;4.63;3.13;;;6.40;99.90;;;;;;4995734;28;20205;-74
2023/03/29 03:53:18;;;;;;;2.10;2.00;;;6.40;99.90;;;;;;4987872;28;20429;-74
2023/03/29 03:55:51;;;;;;;2.80;2.60;;;6.50;99.90;;;;;;4987546;28;20433;-74
2023/03/29 03:58:17;;;;;;;2.07;1.90;;;6.50;99.90;;;;;;4986092;28;20933;-73
2023/03/29 04:00:44;;;;;;;2.03;1.77;;;6.50;99.90;;;;;;4984265;28;20449;-74
2023/03/29 04:03:10;;;;;;;6.93;1.33;;;6.60;99.90;;;;;;4984044;28;20189;-73
2023/03/29 04:05:39;;;;;;;2.10;2.00;;;6.70;99.90;;;;;;4991770;28;20517;-75
2023/03/29 04:08:06;;;;;;;2.30;1.30;;;6.70;99.90;;;;;;4990440;28;20885;-74
2023/03/29 04:10:32;;;;;;;2.67;2.13;;;6.80;99.90;;;;;;4984690;28;20445;-74
2023/03/29 04:13:01;;;;;;;2.40;1.87;;;6.80;99.90;;;;;;4977632;28;20430;-74
2023/03/29 04:15:27;;;;;;;1.40;1.30;;;6.80;99.90;;;;;;4974210;28;20436;-75
2023/03/29 04:17:56;;;;;;;1.87;1.60;;;6.80;99.90;;;;;;4983494;28;20474;-74
2023/03/29 04:20:23;;;;;;;1.47;1.30;;;6.90;99.90;;;;;;4976319;28;20434;-72
2023/03/29 04:22:49;;;;;;;1.33;1.20;;;7.00;99.90;;;;;;4986976;28;20450;-76
2023/03/29 04:25:15;;;;;;;2.00;1.10;;;7.10;99.90;;;;;;4987322;28;20465;-74
2023/03/29 04:27:42;;;;;;;1.67;1.10;;;7.10;99.90;;;;;;4983408;28;20483;-74
2023/03/29 04:30:08;;;;;;;2.90;1.60;;;7.20;99.90;;;;;;4982456;28;20819;-75
2023/03/29 04:32:34;;;;;;;4.17;1.40;;;7.20;99.90;;;;;;4978532;28;20461;-75
2023/03/29 04:35:01;;;;;;;1.90;1.80;;;7.30;99.90;;;;;;4988833;28;20458;-74
2023/03/29 04:37:28;;;;;;;1.33;1.20;;;7.30;99.90;;;;;;4973956;28;20437;-73
2023/03/29 04:39:53;;;;;;;1.10;0.97;;;7.30;99.90;;;;;;4988188;28;20463;-74
2023/03/29 04:42:19;;;;;;;1.53;1.43;;;7.30;99.90;;;;;;4986489;28;20969;-73
2023/03/29 04:44:45;;;;;;;1.10;1.00;;;7.30;99.90;;;;;;4982719;28;20241;-72
2023/03/29 04:47:12;;;;;;;2.20;1.20;;;7.30;99.90;;;;;;4964781;28;20575;-73
2023/03/29 04:49:37;;;;;;;1.17;1.10;;;7.40;99.90;;;;;;4983445;28;20186;-73
2023/03/29 04:52:03;;;;;;;2.87;1.33;;;7.50;99.90;;;;;;4957660;28;20567;-73
2023/03/29 04:54:29;;;;;;;3.80;1.20;;;7.60;99.90;;;;;;4984241;28;20433;-72
2023/03/29 04:56:55;;;;;;;2.90;1.00;;;7.70;99.90;;;;;;4987316;28;20662;-72
2023/03/29 04:59:20;;;;;;;1.67;1.00;;;7.70;99.90;;;;;;4986292;28;20189;-71
2023/03/29 05:01:46;;;;;;;2.43;1.40;;;7.80;99.90;;;;;;4982694;28;20483;-72
2023/03/29 05:04:12;;;;;;;1.53;1.30;;;7.80;99.90;;;;;;4982680;28;20262;-72
2023/03/29 05:06:38;;;;;;;0.90;0.90;;;7.80;99.90;;;;;;4985462;28;20679;-71
2023/03/29 05:09:04;;;;;;;1.43;1.30;;;7.90;99.90;;;;;;4986643;28;20440;-73
2023/03/29 05:11:30;;;;;;;3.80;3.20;;;7.90;99.90;;;;;;4984521;28;20447;-72
2023/03/29 05:13:59;;;;;;;4.27;1.37;;;7.90;99.90;;;;;;4982433;28;20194;-72
2023/03/29 05:16:25;;;;;;;0.90;0.90;;;7.90;99.90;;;;;;4990379;28;20437;-71
2023/03/29 05:18:50;;;;;;;2.17;1.43;;;7.90;99.90;;;;;;4982254;28;20438;-72
2023/03/29 05:21:16;;;;;;;1.17;1.07;;;8.00;99.90;;;;;;4982385;28;20211;-72
2023/03/29 05:23:41;;;;;;;2.27;1.03;;;8.00;99.90;;;;;;4985126;28;20194;-72
2023/03/29 05:26:08;;;;;;;2.13;0.83;;;8.00;99.90;;;;;;4984484;28;20688;-72
2023/03/29 05:28:34;;;;;;;1.97;1.30;;;8.00;99.90;;;;;;4982836;28;20216;-71
2023/03/29 05:31:02;;;;;;;1.17;0.90;;;8.00;99.90;;;;;;4979260;28;20494;-71
2023/03/29 05:33:29;;;;;;;3.83;1.03;;;8.00;99.90;;;;;;4984232;28;20185;-71
2023/03/29 05:35:59;;;;;;;0.90;0.90;;;8.10;99.90;;;;;;4982011;28;20517;-71
2023/03/29 05:38:25;;;;;;;1.80;0.90;;;8.10;99.90;;;;;;4982411;28;20490;-71
2023/03/29 05:40:51;;;;;;;1.47;0.90;;;8.20;99.90;;;;;;4985625;28;20834;-72
2023/03/29 05:43:17;;;;;;;0.80;0.80;;;8.20;99.90;;;;;;4991659;28;20593;-72
2023/03/29 05:45:42;;;;;;;1.27;1.07;;;8.20;99.90;;;;;;4982176;28;20422;-73
2023/03/29 05:48:08;;;;;;;2.23;1.03;;;8.30;99.90;;;;;;4980007;28;20588;-73
2023/03/29 05:50:36;;;;;;;1.03;1.03;;;8.30;99.90;;;;;;4983157;28;20196;-73
2023/03/29 05:53:02;;;;;;;1.47;1.10;;;8.30;99.90;;;;;;4981697;28;20561;-73
2023/03/29 05:55:28;;;;;;;1.60;1.20;;;8.40;99.90;;;;;;4964961;28;21073;-71
2023/03/29 05:57:54;;;;;;;1.20;0.80;;;8.40;99.90;;;;;;4984847;28;20523;-72
2023/03/29 06:00:22;;;;;;;3.13;1.43;;;8.40;99.90;;;;;;4985249;28;20438;-71
2023/03/29 06:02:49;;;;;;;0.90;0.80;;;8.50;99.90;;;;;;4973711;28;20938;-72
2023/03/29 06:05:15;;;;;;;1.27;1.17;;;8.50;99.90;;;;;;4980490;28;20440;-71
2023/03/29 06:07:41;;;;;;;2.90;1.10;;;8.50;99.90;;;;;;4981962;28;20468;-73
2023/03/29 06:10:08;;;;;;;1.87;0.90;;;8.50;99.90;;;;;;4980866;28;20520;-73
2023/03/29 06:12:34;;;;;;;2.57;1.50;;;8.60;99.90;;;;;;4982696;28;20206;-72
2023/03/29 06:15:03;;;;;;;2.40;1.43;;;8.60;99.90;;;;;;4979523;28;20769;-72
2023/03/29 06:17:30;;;;;;;2.40;1.60;;;8.60;99.90;;;;;;4980704;28;20563;-72
2023/03/29 06:19:56;;;;;;;0.80;0.80;;;8.60;99.90;;;;;;4981001;28;20449;-72
2023/03/29 06:22:22;;;;;;;1.10;1.00;;;8.70;99.90;;;;;;4981251;28;20447;-72
2023/03/29 06:24:48;;;;;;;14.83;1.27;;;8.80;99.90;;;;;;4984091;28;20434;-72
2023/03/29 06:27:13;;;;;;;1.20;1.10;;;8.80;99.90;;;;;;4984287;28;20708;-72
2023/03/29 06:29:39;;;;;;;1.10;0.90;;;8.90;99.90;;;;;;4982087;28;20286;-72
2023/03/29 06:32:04;;;;;;;2.83;1.63;;;9.00;99.90;;;;;;4980298;28;20233;-72
2023/03/29 06:34:30;;;;;;;3.00;2.17;;;9.00;99.90;;;;;;4988794;28;20199;-73
2023/03/29 06:36:56;;;;;;;1.93;1.63;;;9.10;99.90;;;;;;4980836;28;20231;-72
2023/03/29 06:39:22;;;;;;;6.00;1.53;;;9.10;99.90;;;;;;4980999;28;20203;-71
2023/03/29 06:41:47;;;;;;;1.30;1.20;;;9.20;99.90;;;;;;4982289;28;20611;-72
2023/03/29 06:44:14;;;;;;;2.47;1.27;;;9.30;99.90;;;;;;4965633;28;20437;-73
2023/03/29 06:46:39;;;;;;;1.53;1.30;;;9.40;99.90;;;;;;4982180;28;20236;-73
2023/03/29 06:49:05;;;;;;;2.40;1.30;;;9.50;99.90;;;;;;4981037;28;20443;-73
2023/03/29 06:51:31;;;;;;;1.93;1.50;;;9.60;99.90;;;;;;4963738;28;20218;-73
2023/03/29 06:53:56;;;;;;;1.47;1.20;;;9.70;99.90;;;;;;4963381;28;20563;-73
2023/03/29 06:56:22;;;;;;;1.37;1.27;;;9.80;99.90;;;;;;4980519;28;20214;-72
2023/03/29 06:58:48;;;;;;;1.53;1.00;;;9.90;99.90;;;;;;4983867;28;20288;-73
2023/03/29 07:01:13;;;;;;;2.70;1.60;;;10.00;99.90;;;;;;4975840;28;20539;-74
2023/03/29 07:03:40;;;;;;;6.77;2.43;;;10.10;99.90;;;;;;4981859;28;20205;-73
2023/03/29 07:06:08;;;;;;;1.70;1.20;;;10.10;99.90;;;;;;4977098;28;20249;-73
2023/03/29 07:08:42;;;;;;;2.13;1.30;;;10.10;99.90;;;;;;4982325;28;20441;-73
2023/03/29 07:11:07;;;;;;;4.60;1.60;;;10.00;99.90;;;;;;4980607;28;20451;-73
2023/03/29 07:13:33;;;;;;;2.40;1.27;;;10.10;99.90;;;;;;4981282;28;20428;-71
2023/03/29 07:15:59;;;;;;;1.47;1.10;;;10.10;99.90;;;;;;4983310;28;20187;-72
2023/03/29 07:18:25;;;;;;;2.10;1.47;;;10.20;99.90;;;;;;4983676;28;20267;-73
2023/03/29 07:20:51;;;;;;;1.60;1.50;;;10.30;99.90;;;;;;4974353;28;20210;-72
2023/03/29 07:23:17;;;;;;;0.97;0.97;;;10.30;99.90;;;;;;4980427;28;20498;-73
2023/03/29 07:25:43;;;;;;;4.00;1.50;;;10.30;99.90;;;;;;4981803;28;20431;-71
2023/03/29 07:28:10;;;;;;;3.87;1.87;;;10.40;99.90;;;;;;4985586;28;20222;-73
2023/03/29 07:30:36;;;;;;;2.40;1.30;;;10.40;99.90;;;;;;4981007;28;20789;-73
2023/03/29 07:33:02;;;;;;;5.13;1.77;;;10.50;99.90;;;;;;4983052;28;20435;-73
2023/03/29 07:35:27;;;;;;;3.37;1.40;;;10.50;99.90;;;;;;4982898;28;20442;-71
2023/03/29 07:37:57;;;;;;;1.40;1.30;;;10.60;99.90;;;;;;4979945;28;20442;-72
2023/03/29 07:40:24;;;;;;;3.77;1.40;;;10.70;99.90;;;;;;4984667;28;20640;-72
2023/03/29 07:42:52;;;;;;;4.90;1.63;;;10.70;99.90;;;;;;4983004;28;20485;-72
2023/03/29 07:45:19;;;;;;;4.97;1.17;;;10.80;99.90;;;;;;4983216;28;20457;-72
2023/03/29 07:47:49;;;;;;;7.70;1.87;;;10.80;99.90;;;;;;4980572;28;20477;-72
2023/03/29 07:50:15;;;;;;;6.93;1.90;;;10.80;99.90;;;;;;4980068;28;20428;-72
2023/03/29 07:52:42;;;;;;;2.80;1.10;;;10.90;99.90;;;;;;4981250;28;20447;-71
2023/03/29 07:55:09;;;;;;;1.73;1.47;;;11.00;99.90;;;;;;4977780;28;20458;-72
2023/03/29 07:57:35;;;;;;;3.40;1.53;;;11.00;99.90;;;;;;4969789;28;20846;-71
2023/03/29 08:00:13;;;;;;;1.77;1.33;;;11.00;99.90;;;;;;4979669;28;20510;-73
2023/03/29 08:02:39;;;;;;;5.13;1.57;;;11.20;99.90;;;;;;4979663;28;20811;-71
2023/03/29 08:05:05;;;;;;;1.40;1.30;;;11.30;99.90;;;;;;4979498;28;20529;-73
2023/03/29 08:07:31;;;;;;;3.00;1.30;;;11.30;99.90;;;;;;4978898;28;20479;-72
2023/03/29 08:09:57;;;;;;;2.63;1.23;;;11.40;99.90;;;;;;4966318;28;20469;-73
2023/03/29 08:12:22;;;;;;;7.33;1.70;;;11.60;99.90;;;;;;4975464;28;20215;-72
2023/03/29 08:14:48;;;;;;;8.93;1.70;;;11.70;99.90;;;;;;4989853;28;20535;-73
2023/03/29 08:17:13;;;;;;;2.23;1.47;;;11.90;99.90;;;;;;4982641;28;20191;-73
2023/03/29 08:19:39;;;;;;;2.87;1.93;;;12.00;99.90;;;;;;4980545;28;20191;-73
2023/03/29 08:22:05;;;;;;;4.20;1.83;;;12.10;99.90;;;;;;4983243;28;20241;-71
2023/03/29 08:24:30;;;;;;;5.23;1.90;;;12.20;99.90;;;;;;4984502;28;20430;-72
2023/03/29 08:26:56;;;;;;;1.37;1.30;;;12.20;99.90;;;;;;4980473;28;20298;-71
2023/03/29 08:29:21;;;;;;;5.10;1.80;;;12.20;99.90;;;;;;4977873;28;20270;-72
2023/03/29 08:31:48;;;;;;;4.13;1.63;;;12.20;99.90;;;;;;4980943;28;20722;-72
2023/03/29 08:34:13;;;;;;;6.03;1.50;;;12.20;99.90;;;;;;4980682;28;20183;-71
2023/03/29 08:36:39;;;;;;;4.20;1.67;;;12.20;99.90;;;;;;4985404;28;20492;-72
2023/03/29 08:39:04;;;;;;;1.43;1.27;;;12.20;99.90;;;;;;4981677;28;20223;-72
2023/03/29 08:42:02;;;;;;;1.87;1.40;;;12.20;99.90;;;;;;4986726;28;20212;-73
2023/03/29 08:44:51;;;;;;;7.47;1.47;;;12.30;99.90;;;;;;4979139;28;20228;-73
2023/03/29 08:47:27;;;;;;;4.77;1.50;;;12.30;99.90;;;;;;4983180;28;20474;-72
2023/03/29 08:49:55;;;;;;;2.07;1.30;;;12.30;99.90;;;;;;4980890;28;20423;-71
2023/03/29 08:52:37;;;;;;;1.97;1.40;;;12.30;99.90;;;;;;4982936;28;20534;-72
2023/03/29 08:55:11;;;;;;;2.10;1.47;;;12.40;99.90;;;;;;4982755;28;20466;-73
2023/03/29 08:57:46;;;;;;;2.27;1.63;;;12.40;99.90;;;;;;4983520;28;20486;-71
2023/03/29 09:00:33;;;;;;;2.40;1.43;;;12.50;99.90;;;;;;4968427;28;20438;-72
2023/03/29 09:03:01;;;;;;;4.33;2.27;;;12.60;99.90;;;;;;4975335;28;20443;-73
2023/03/29 09:05:32;;;;;;;1.80;1.70;;;12.60;99.90;;;;;;4982765;28;20423;-72
2023/03/29 09:07:58;;;;;;;5.60;2.50;;;12.80;99.90;;;;;;4968754;28;20473;-71
2023/03/29 09:10:38;;;;;;;2.20;1.77;;;12.80;99.90;;;;;;4985505;28;20427;-72
2023/03/29 09:13:15;;;;;;;2.03;1.50;;;12.90;99.90;;;;;;4975384;28;20188;-73
2023/03/29 09:15:53;;;;;;;3.00;1.70;;;13.00;99.90;;;;;;4983336;28;20423;-72
2023/03/29 09:18:29;;;;;;;2.87;1.63;;;13.00;99.90;;;;;;4986595;28;20445;-73
2023/03/29 09:20:58;;;;;;;7.97;2.37;;;13.20;99.90;;;;;;4976930;28;20465;-71
2023/03/29 09:23:45;;;;;;;5.90;3.70;;;13.40;99.90;;;;;;4985918;28;20465;-73
2023/03/29 09:26:30;;;;;;;2.13;1.90;;;13.50;99.90;;;;;;4972833;28;21080;-73
2023/03/29 09:29:12;;;;;;;2.67;1.67;;;13.70;99.90;;;;;;4982421;28;20442;-72
2023/03/29 09:31:42;;;;;;;4.93;1.80;;;13.80;99.90;;;;;;4973450;28;20473;-72
2023/03/29 09:34:21;;;;;;;1.93;1.20;;;13.80;99.90;;;;;;4985160;28;20825;-70
2023/03/29 09:37:07;;;;;;;2.20;1.37;;;13.80;99.90;;;;;;4977333;28;20434;-73
2023/03/29 09:39:33;;;;;;;1.40;1.30;;;13.80;99.90;;;;;;4985392;28;20473;-72
2023/03/29 09:42:06;;;;;;;2.57;1.50;;;13.90;99.90;;;;;;4980938;28;20447;-73
2023/03/29 09:44:56;;;;;;;4.57;1.77;;;14.10;99.90;;;;;;4980905;28;20239;-72
2023/03/29 09:47:30;;;;;;;8.73;1.70;;;14.20;99.90;;;;;;4969153;28;20506;-71
2023/03/29 09:50:01;;;;;;;1.60;1.50;;;14.30;99.90;;;;;;4981655;28;20463;-73
2023/03/29 09:52:27;;;;;;;2.60;1.80;;;14.30;99.90;;;;;;4973196;28;20936;-73
2023/03/29 09:54:52;;;;;;;4.20;1.87;;;14.40;99.90;;;;;;4983667;28;20498;-73
2023/03/29 09:57:19;;;;;;;2.07;1.40;;;14.50;99.90;;;;;;4993281;28;20266;-71
2023/03/29 09:59:47;;;;;;;1.73;1.37;;;14.90;99.90;;;;;;4975798;28;20245;-73
2023/03/29 10:02:13;;;;;;;5.17;1.20;;;15.30;99.90;;;;;;4980731;28;20923;-73
2023/03/29 10:04:41;;;;;;;3.63;1.40;;;15.50;99.90;;;;;;4981626;28;20927;-72
2023/03/29 10:07:19;;;;;;;2.10;1.07;;;15.70;99.90;;;;;;4979467;28;20489;-73
2023/03/29 10:09:46;;;;;;;2.00;1.50;;;15.70;99.90;;;;;;4980480;28;20442;-72
2023/03/29 10:12:12;;;;;;;3.90;1.47;;;15.80;99.90;;;;;;4984175;28;20923;-73
2023/03/29 10:14:49;;;;;;;4.20;2.40;;;15.70;99.90;;;;;;4984757;28;20798;-73
2023/03/29 10:17:26;;;;;;;3.83;1.03;;;16.00;99.90;;;;;;4978814;28;20550;-73
2023/03/29 10:19:57;;;;;;;1.40;1.20;;;16.50;99.90;;;;;;4989971;28;20442;-73
2023/03/29 10:22:26;;;;;;;4.03;1.70;;;16.80;99.90;;;;;;4977779;28;20610;-73
2023/03/29 10:24:53;;;;;;;1.50;1.17;;;16.60;99.90;;;;;;4977588;28;20946;-73
2023/03/29 10:27:25;;;;;;;1.13;1.03;;;16.60;99.90;;;;;;4986887;28;20479;-72
2023/03/29 10:29:52;;;;;;;2.00;1.10;;;16.60;99.90;;;;;;4971665;28;20517;-73
2023/03/29 10:32:21;;;;;;;3.00;1.30;;;16.50;99.90;;;;;;4972477;28;20529;-73
2023/03/29 10:34:48;;;;;;;3.07;1.43;;;16.60;99.90;;;;;;4982026;28;20931;-73
2023/03/29 10:37:18;;;;;;;2.50;1.40;;;16.30;99.90;;;;;;4987555;28;20445;-72
2023/03/29 10:39:45;;;;;;;3.43;1.47;;;16.40;99.90;;;;;;4981901;28;20439;-72
2023/03/29 10:42:16;;;;;;;3.57;1.43;;;16.40;99.90;;;;;;4983832;28;20461;-73
2023/03/29 10:44:41;;;;;;;4.50;1.67;;;16.60;99.90;;;;;;4980776;28;20439;-72
2023/03/29 10:47:19;;;;;;;1.53;1.43;;;16.90;99.90;;;;;;4984359;28;20462;-74
2023/03/29 10:49:49;;;;;;;2.53;1.30;;;17.50;99.90;;;;;;4983472;28;20618;-73
2023/03/29 10:52:18;;;;;;;2.60;1.10;;;18.00;99.90;;;;;;4973137;28;20475;-73
2023/03/29 10:54:46;;;;;;;4.20;1.90;;;18.50;99.90;;;;;;4972337;28;20502;-72
2023/03/29 10:57:38;;;;;;;2.80;1.33;;;18.90;99.90;;;;;;4980797;28;20539;-74
2023/03/29 11:00:19;;;;;;;2.23;1.50;;;18.80;99.90;;;;;;4957397;28;20529;-73
2023/03/29 11:03:09;;;;;;;2.83;1.27;;;18.80;99.90;;;;;;4982811;28;20816;-72
2023/03/29 11:05:52;;;;;;;1.53;1.33;;;18.90;99.90;;;;;;4976525;28;20451;-74
2023/03/29 11:08:27;;;;;;;4.00;1.40;;;19.10;99.90;;;;;;4980479;28;20482;-74
2023/03/29 11:11:01;;;;;;;5.60;1.20;;;19.40;99.90;;;;;;4981919;28;20483;-72
2023/03/29 11:13:32;;;;;;;2.13;1.43;;;19.70;99.90;;;;;;4975936;28;20424;-74
2023/03/29 11:16:12;;;;;;;4.60;1.20;;;19.90;99.90;;;;;;4971308;28;20941;-74
2023/03/29 11:18:56;;;;;;;3.20;1.37;;;20.30;99.90;;;;;;4965779;28;20436;-74
2023/03/29 11:22:03;;;;;;;3.00;1.47;;;20.90;99.90;;;;;;4977171;28;20450;-73
2023/03/29 11:24:47;;;;;;;1.47;1.10;;;21.00;99.90;;;;;;4979228;28;20426;-74
2023/03/29 11:27:40;;;;;;;3.50;1.27;;;20.70;99.20;;;;;;4980103;28;20482;-75
2023/03/29 11:30:34;;;;;;;1.43;1.27;;;20.70;99.50;;;;;;4973249;28;20439;-75
2023/03/29 11:33:23;;;;;;;1.40;1.20;;;20.80;99.90;;;;;;4981320;28;20818;-73
2023/03/29 11:36:13;;;;;;;2.73;1.40;;;21.00;99.90;;;;;;4982150;28;20817;-74
2023/03/29 11:38:48;;;;;;;1.73;1.17;;;20.90;99.90;;;;;;4979917;28;20813;-76
2023/03/29 11:41:20;;;;;;;3.77;1.57;;;20.80;99.90;;;;;;4967714;28;20528;-74
2023/03/29 11:44:19;;;;;;;2.90;1.40;;;20.60;99.20;;;;;;4971321;28;20510;-74
2023/03/29 11:47:00;;;;;;;1.87;1.47;;;20.20;99.90;;;;;;4974725;28;20486;-76
2023/03/29 11:49:37;;;;;;;2.33;1.23;;;19.70;99.90;;;;;;4971579;28;20435;-73
2023/03/29 11:52:16;;;;;;;5.03;1.30;;;19.30;99.90;;;;;;4975777;28;20489;-74
2023/03/29 11:55:17;;;;;;;2.80;1.50;;;19.10;99.90;;;;;;4968726;28;20789;-75
2023/03/29 11:57:48;;;;;;;1.50;1.40;;;18.80;99.90;;;;;;4928637;28;20435;-74
2023/03/29 12:00:39;;;;;;;5.23;1.20;;;18.60;99.90;;;;;;4975928;28;21162;-75
2023/03/29 12:03:08;;;;;;;4.40;2.57;;;18.40;99.90;;;;;;4983020;28;20454;-75
2023/03/29 12:05:43;;;;;;;2.33;1.40;;;18.50;99.90;;;;;;4971623;28;20438;-75
2023/03/29 12:08:17;;;;;;;1.60;1.00;;;18.80;99.90;;;;;;4974832;28;20492;-74
2023/03/29 12:10:51;;;;;;;1.50;1.40;;;19.20;99.90;;;;;;4974825;28;20458;-75
2023/03/29 12:13:32;;;;;;;1.63;1.30;;;19.50;99.90;;;;;;4978099;28;20457;-74
2023/03/29 12:16:05;;;;;;;3.20;1.33;;;19.60;99.90;;;;;;4982760;28;20442;-72
2023/03/29 12:18:40;;;;;;;2.03;1.27;;;19.60;99.90;;;;;;4983779;28;20423;-75
2023/03/29 12:21:13;;;;;;;1.27;1.17;;;19.60;99.90;;;;;;4982597;28;20820;-74
2023/03/29 12:23:40;;;;;;;1.50;1.07;;;19.60;99.90;;;;;;4972574;28;20443;-76
2023/03/29 12:26:39;;;;;;;0.90;0.70;;;19.40;99.90;;;;;;4990934;28;20949;-75
2023/03/29 12:29:41;;;;;;;1.77;0.83;;;19.30;99.90;;;;;;4977838;28;20956;-75
2023/03/29 12:32:35;;;;;;;1.53;1.07;;;19.20;99.90;;;;;;4982818;28;20466;-75
2023/03/29 12:35:22;;;;;;;2.83;0.80;;;19.10;99.90;;;;;;4967928;28;20443;-74
2023/03/29 12:38:20;;;;;;;2.10;0.90;;;19.00;99.90;;;;;;4974525;28;20788;-74
2023/03/29 12:40:52;;;;;;;1.00;0.80;;;18.70;99.90;;;;;;4956993;28;20464;-73
2023/03/29 12:43:29;;;;;;;0.70;0.70;;;18.40;99.90;;;;;;4977688;28;20898;-74
2023/03/29 12:46:04;;;;;;;2.60;0.87;;;18.60;99.90;;;;;;4976866;28;20850;-74
2023/03/29 12:48:30;;;;;;;5.10;1.10;;;18.50;99.90;;;;;;4986023;28;20549;-75
2023/03/29 12:51:06;;;;;;;1.20;0.90;;;18.50;99.90;;;;;;4982889;28;20499;-75
2023/03/29 12:53:38;;;;;;;1.00;0.70;;;18.40;99.90;;;;;;4975819;28;20435;-75
2023/03/29 12:56:07;;;;;;;3.50;0.77;;;18.10;99.90;;;;;;4976777;28;20434;-74
2023/03/29 12:58:39;;;;;;;3.03;0.90;;;17.80;99.90;;;;;;4986262;28;20422;-75
2023/03/29 13:01:26;;;;;;;2.00;0.90;;;17.60;99.90;;;;;;4977537;28;20462;-75
2023/03/29 13:03:57;;;;;;;1.63;0.93;;;17.60;99.90;;;;;;4973233;28;20443;-73
2023/03/29 13:06:29;;;;;;;2.17;0.83;;;17.60;99.90;;;;;;4993883;28;20461;-75
2023/03/29 13:09:36;;;;;;;1.07;0.60;;;17.60;99.90;;;;;;4976755;28;21019;-75
2023/03/29 13:12:27;;;;;;;1.40;0.90;;;17.70;99.90;;;;;;4982098;28;20481;-74
2023/03/29 13:14:59;;;;;;;1.80;0.70;;;17.50;99.90;;;;;;4980510;28;20463;-73
2023/03/29 13:17:35;;;;;;;2.13;0.80;;;17.50;99.90;;;;;;4979719;28;20517;-74
2023/03/29 13:20:36;;;;;;;1.10;0.93;;;17.50;99.90;;;;;;4976501;28;20423;-76
2023/03/29 13:23:21;;;;;;;1.87;0.90;;;17.50;99.90;;;;;;4972411;28;20485;-74
2023/03/29 13:26:02;;;;;;;8.43;0.93;;;17.70;99.90;;;;;;4989032;28;20435;-74
2023/03/29 13:29:07;;;;;;;2.00;0.90;;;17.90;99.90;;;;;;4968494;28;20467;-75
2023/03/29 13:31:59;;;;;;;1.33;1.10;;;17.80;99.90;;;;;;4948811;28;20471;-74
2023/03/29 13:34:57;;;;;;;1.23;0.93;;;17.80;99.90;;;;;;4966469;28;21062;-75
2023/03/29 13:37:52;;;;;;;1.10;0.90;;;17.70;99.90;;;;;;4967717;28;20459;-75
2023/03/29 13:40:43;;;;;;;3.60;1.20;;;17.50;99.90;;;;;;4973470;28;21047;-75
2023/03/29 13:43:19;;;;;;;5.40;1.00;;;17.20;99.90;;;;;;4989226;28;20455;-75
2023/03/29 13:46:15;;;;;;;3.50;1.50;;;17.10;99.90;;;;;;4977669;28;20470;-76
2023/03/29 13:48:41;;;;;;;1.87;0.80;;;17.10;99.90;;;;;;4981355;28;20558;-75
2023/03/29 13:51:13;;;;;;;1.53;0.93;;;16.90;99.90;;;;;;4974244;28;21009;-75
2023/03/29 13:53:51;;;;;;;1.20;0.80;;;16.90;99.90;;;;;;4986461;28;20450;-73
2023/03/29 13:56:50;;;;;;;1.67;1.00;;;16.50;99.90;;;;;;4969809;28;20442;-74
2023/03/29 13:59:25;;;;;;;1.33;0.90;;;16.10;99.90;;;;;;4960684;28;21044;-73
2023/03/29 14:01:56;;;;;;;3.57;0.90;;;15.80;99.90;;;;;;4984196;28;20458;-74
2023/03/29 14:04:26;;;;;;;1.53;1.10;;;15.20;99.90;;;;;;4976506;28;20574;-76
2023/03/29 14:06:54;;;;;;;2.50;1.20;;;14.60;99.90;;;;;;4976276;28;20467;-76
2023/03/29 14:09:29;;;;;;;1.10;1.00;;;14.20;99.90;;;;;;4988081;28;20997;-77
2023/03/29 14:11:58;;;;;;;0.87;0.87;;;14.00;99.90;;;;;;4980714;28;20449;-76
2023/03/29 14:14:26;;;;;;;3.37;1.20;;;14.00;99.90;;;;;;4975810;28;20848;-77
2023/03/29 14:16:54;;;;;;;3.00;1.10;;;14.00;99.90;;;;;;4990061;28;20811;-77
2023/03/29 14:19:36;;;;;;;2.60;1.27;;;14.10;99.90;;;;;;4986412;28;20447;-77
2023/03/29 14:22:11;;;;;;;0.83;0.80;;;14.20;99.90;;;;;;4974619;28;20451;-77
2023/03/29 14:24:40;;;;;;;1.47;1.23;;;14.30;99.90;;;;;;4980305;28;20443;-78
2023/03/29 14:27:10;;;;;;;3.57;1.33;;;14.30;99.90;;;;;;4983287;28;20880;-77
2023/03/29 14:29:35;;;;;;;1.33;1.00;;;14.40;99.90;;;;;;4978324;28;20404;-78
2023/03/29 14:32:15;;;;;;;2.03;0.77;;;14.50;99.90;;;;;;4988895;28;20540;-76
2023/03/29 14:34:41;;;;;;;1.50;1.40;;;14.50;99.90;;;;;;4979081;28;20194;-75
2023/03/29 14:37:26;;;;;;;1.30;1.10;;;14.50;99.90;;;;;;4982124;28;20516;-76
2023/03/29 14:39:52;;;;;;;2.93;1.43;;;14.60;99.90;;;;;;4981560;28;20434;-75
2023/03/29 14:42:22;;;;;;;1.30;1.20;;;14.60;99.90;;;;;;4981017;28;20461;-77
2023/03/29 14:44:49;;;;;;;9.40;2.00;;;14.60;99.90;;;;;;4980688;28;20461;-77